Terminal Aerodrome Forecast
Issued by NWS

Home | Current Version | Previous Version | Text Only | Print | Product List | Glossary Off
Versions: 1 2 3 4 5 6 7 8 9 10 11 12 13 14 15 16 17

000
FTUS43 KBIS 221720
TAFDIK
TAF
KDIK 221720Z 2218/2318 15006KT P6SM SKC
     FM222300 12009KT P6SM SKC
     FM230400 01005KT P6SM SKC
     FM231100 32009KT P6SM FEW150
     FM231400 32014G20KT P6SM FEW100=

USA.gov is the U.S. government's official web portal to all federal, state and local government web resources and services.